createdAt,value
2023-03-22T06:01:10.529Z,0.50
2023-03-22T06:05:10.892Z,0.50
2023-03-22T06:09:17.345Z,0.34
2023-03-22T06:13:12.584Z,0.34
2023-03-22T06:17:11.400Z,0.34
2023-03-22T06:21:10.727Z,0.34
2023-03-22T06:25:10.834Z,0.34
2023-03-22T06:29:10.987Z,0.51
2023-03-22T06:33:11.132Z,0.50
2023-03-22T06:37:11.253Z,0.51
2023-03-22T06:41:11.426Z,0.50
2023-03-22T06:45:11.474Z,0.54
2023-03-22T06:49:11.626Z,0.51
2023-03-22T06:53:25.437Z,0.54
2023-03-22T06:57:11.735Z,0.52
2023-03-22T07:01:11.707Z,0.51
2023-03-22T07:05:11.631Z,0.50
2023-03-22T07:09:11.632Z,0.51
2023-03-22T07:13:11.597Z,0.53
2023-03-22T07:17:11.605Z,0.57
2023-03-22T07:21:11.642Z,0.56
2023-03-22T07:25:11.739Z,0.58
2023-03-22T07:29:11.727Z,0.55
2023-03-22T07:33:11.700Z,0.52
2023-03-22T07:37:11.740Z,0.54
2023-03-22T07:41:11.641Z,0.52
2023-03-22T07:45:11.639Z,0.53
2023-03-22T07:49:11.594Z,0.52
2023-03-22T07:53:11.653Z,0.54
2023-03-22T07:57:11.490Z,0.53
2023-03-22T08:01:11.488Z,0.54
2023-03-22T08:05:11.569Z,0.50
2023-03-22T08:09:11.390Z,0.53
2023-03-22T08:13:11.425Z,0.52
2023-03-22T08:17:11.508Z,0.52
2023-03-22T08:21:12.033Z,0.50
2023-03-22T08:25:11.669Z,0.55
2023-03-22T08:29:11.893Z,0.57
2023-03-22T08:33:12.976Z,0.58
2023-03-22T08:37:12.203Z,0.56
2023-03-22T08:41:13.029Z,0.51
2023-03-22T08:45:13.451Z,0.58
2023-03-22T08:49:12.484Z,0.59
2023-03-22T08:53:12.723Z,0.70
2023-03-22T08:57:12.783Z,0.72
2023-03-22T09:01:13.091Z,2.46
2023-03-22T09:05:13.335Z,1.11
2023-03-22T09:09:13.488Z,1.22
2023-03-22T09:13:13.606Z,0.77
2023-03-22T09:17:13.663Z,0.64
2023-03-22T09:21:15.449Z,0.63
2023-03-22T09:25:13.587Z,0.65
2023-03-22T09:29:13.768Z,0.70
2023-03-22T09:33:13.390Z,0.70
2023-03-22T09:37:13.516Z,0.69
2023-03-22T09:41:13.478Z,0.76
2023-03-22T09:45:13.278Z,0.81
2023-03-22T09:49:13.254Z,0.83
2023-03-22T09:53:13.194Z,0.88
2023-03-22T09:57:13.158Z,0.92
2023-03-22T10:01:13.331Z,0.94
2023-03-22T10:05:13.150Z,0.99
2023-03-22T10:09:13.038Z,0.96
2023-03-22T10:13:13.057Z,0.84
2023-03-22T10:17:12.990Z,0.86
2023-03-22T10:21:12.985Z,1.00
2023-03-22T10:25:13.024Z,1.00
2023-03-22T10:29:12.961Z,0.90
2023-03-22T10:33:12.803Z,0.90
2023-03-22T10:37:12.762Z,0.90
2023-03-22T10:41:12.823Z,0.84
2023-03-22T10:45:12.848Z,0.64
2023-03-22T10:49:12.657Z,0.63
2023-03-22T10:53:12.717Z,0.54
2023-03-22T10:57:12.563Z,0.51
2023-03-22T11:01:12.900Z,0.57
2023-03-22T11:05:12.874Z,0.65
2023-03-22T11:09:13.121Z,0.81
2023-03-22T11:13:12.549Z,0.83
2023-03-22T11:17:12.604Z,0.96
2023-03-22T11:21:12.505Z,0.99
2023-03-22T11:25:15.565Z,0.96
2023-03-22T11:29:12.526Z,1.01
2023-03-22T11:33:12.433Z,1.01
2023-03-22T11:37:15.550Z,1.09
2023-03-22T11:41:12.313Z,1.02
2023-03-22T11:45:12.245Z,0.99
2023-03-22T11:49:12.264Z,1.10
2023-03-22T11:53:12.194Z,1.09
2023-03-22T11:57:12.154Z,1.06
2023-03-22T12:01:12.229Z,1.09
2023-03-22T12:05:13.052Z,1.09
2023-03-22T12:09:12.152Z,0.92
2023-03-22T12:13:12.130Z,0.90
2023-03-22T12:17:12.013Z,0.89
2023-03-22T12:21:11.938Z,0.91
2023-03-22T12:25:11.864Z,0.87
2023-03-22T12:29:12.099Z,0.89
2023-03-22T12:33:11.844Z,0.89
2023-03-22T12:37:11.839Z,0.93
2023-03-22T12:41:12.004Z,0.95
2023-03-22T12:45:12.627Z,0.84
2023-03-22T12:49:11.695Z,0.96
2023-03-22T12:53:11.682Z,0.94
2023-03-22T12:57:11.620Z,0.91
2023-03-22T13:01:11.605Z,0.96
2023-03-22T13:05:11.489Z,0.97
2023-03-22T13:09:11.575Z,0.88
2023-03-22T13:13:11.552Z,0.95
2023-03-22T13:17:11.604Z,1.00
2023-03-22T13:21:11.855Z,1.07
2023-03-22T13:25:11.930Z,1.06
2023-03-22T13:29:11.987Z,1.17
2023-03-22T13:33:12.137Z,1.20
2023-03-22T13:37:12.091Z,1.72
2023-03-22T13:41:12.141Z,1.35
2023-03-22T13:45:12.329Z,1.35
2023-03-22T13:49:12.382Z,1.20
2023-03-22T13:53:12.257Z,1.25
2023-03-22T13:57:12.557Z,1.18
2023-03-22T14:01:12.294Z,1.25
2023-03-22T14:05:12.602Z,1.09
2023-03-22T14:09:12.118Z,1.11
2023-03-22T14:13:12.128Z,1.10
2023-03-22T14:17:11.998Z,1.07
2023-03-22T14:21:14.844Z,1.12
2023-03-22T14:46:02.323Z,0.50
2023-03-22T14:50:02.272Z,0.50
2023-03-22T14:54:02.209Z,0.50
2023-03-22T14:58:02.176Z,0.52
2023-03-22T15:02:02.264Z,0.50
2023-03-22T15:06:02.125Z,0.53
2023-03-22T15:10:02.093Z,0.54
2023-03-22T15:14:02.047Z,0.55
2023-03-22T15:18:01.976Z,0.55
2023-03-22T15:22:01.965Z,0.57
2023-03-22T15:26:01.917Z,0.60
2023-03-22T15:30:01.891Z,0.62
2023-03-22T15:34:01.859Z,0.66
2023-03-22T15:38:01.845Z,0.73
2023-03-22T15:42:01.828Z,1.44
2023-03-22T15:46:01.717Z,1.04
2023-03-22T15:50:01.736Z,1.19
2023-03-22T15:54:01.693Z,1.41
2023-03-22T15:58:01.635Z,1.35
2023-03-22T16:02:01.589Z,1.63
2023-03-22T16:06:01.572Z,7.48
2023-03-22T16:10:01.535Z,2.32
2023-03-22T16:14:01.458Z,3.08
2023-03-22T16:18:01.417Z,3.35
2023-03-22T16:22:01.421Z,3.38
2023-03-22T16:26:01.357Z,3.56
2023-03-22T16:30:01.333Z,3.61
2023-03-22T16:34:01.269Z,3.34
2023-03-22T16:38:01.235Z,3.24
2023-03-22T16:42:01.309Z,3.06
2023-03-22T16:46:01.380Z,2.93
2023-03-22T16:50:01.413Z,2.81
2023-03-22T16:54:01.504Z,2.69
2023-03-22T16:58:01.557Z,2.67
2023-03-22T17:02:01.629Z,2.56
2023-03-22T17:06:01.719Z,2.45
2023-03-22T17:10:01.788Z,2.45
2023-03-22T17:14:01.866Z,2.46
2023-03-22T17:18:01.946Z,2.56
2023-03-22T17:22:02.102Z,2.34
2023-03-22T17:26:02.166Z,2.14
2023-03-22T17:30:02.286Z,2.04
2023-03-22T17:34:02.788Z,1.97
2023-03-22T17:38:02.951Z,1.89
2023-03-22T17:42:02.687Z,1.92
2023-03-22T17:46:49.066Z,1.97
2023-03-22T17:50:03.807Z,2.00
2023-03-22T17:54:35.505Z,1.95
